Time;durP1;ratioP1;P1;durP2;ratioP2;P2;SDS_P1;SDS_P2;PMS_P1;PMS_P2;Temp;Humidity;BMP_temperature;BMP_pressure;BME280_temperature;BME280_humidity;BME280_pressure;Samples;Min_cycle;Max_cycle;Signal;HPM_P1;HPM_P2
2022/08/30 00:01:38;;;;;;;;;5.50;4.25;;;;;23.09;39.17;100914.59;4995997;28;45985;-66
2022/08/30 00:04:15;;;;;;;;;6.75;6.00;;;;;23.07;39.02;100922.75;5036650;28;45505;-65
2022/08/30 00:07:05;;;;;;;;;5.00;5.00;;;;;23.08;39.00;100926.31;5060142;28;45471;-64
2022/08/30 00:09:45;;;;;;;;;4.25;4.25;;;;;23.06;39.14;100928.25;5079353;28;45383;-65
2022/08/30 00:12:36;;;;;;;;;5.00;5.00;;;;;23.04;38.90;100928.38;5011157;28;46263;-65
2022/08/30 00:18:28;;;;;;;;;5.25;4.25;;;;;23.03;39.29;100937.41;5078388;28;45446;-65
2022/08/30 00:20:54;;;;;;;;;4.25;4.25;;;;;23.01;38.96;100919.72;5060427;28;45669;-65
2022/08/30 00:23:23;;;;;;;;;4.50;4.50;;;;;22.96;39.00;100924.59;5078547;28;45404;-63
2022/08/30 00:26:18;;;;;;;;;4.75;3.75;;;;;22.88;39.04;100918.00;5078071;28;45479;-64
2022/08/30 00:29:40;;;;;;;;;4.75;4.50;;;;;22.83;39.03;100922.06;5061346;28;45507;-66
2022/08/30 00:32:05;;;;;;;;;3.25;3.25;;;;;22.83;39.16;100911.31;5060657;28;45590;-63
2022/08/30 00:34:56;;;;;;;;;3.75;3.75;;;;;22.84;39.05;100919.25;5077767;28;46329;-66
2022/08/30 00:38:02;;;;;;;;;2.75;2.75;;;;;22.84;39.30;100908.53;5044202;28;45489;-61
2022/08/30 00:41:04;;;;;;;;;4.75;4.75;;;;;22.80;38.94;100916.94;5046347;28;45546;-64
2022/08/30 00:43:44;;;;;;;;;6.00;6.00;;;;;22.78;39.07;100911.69;5019606;28;45497;-63
2022/08/30 00:46:23;;;;;;;;;5.00;5.00;;;;;22.75;39.30;100914.63;5011609;28;45634;-61
2022/08/30 00:48:52;;;;;;;;;3.75;3.75;;;;;22.71;39.27;100916.72;4994855;28;45571;-62
2022/08/30 00:54:44;;;;;;;;;3.75;3.75;;;;;22.65;39.27;100903.81;5020011;28;45505;-62
2022/08/30 00:57:11;;;;;;;;;3.00;3.00;;;;;22.63;39.46;100905.78;5027570;28;46250;-62
2022/08/30 00:59:49;;;;;;;;;3.50;3.50;;;;;22.63;39.33;100913.81;5042113;28;45561;-65
2022/08/30 01:02:45;;;;;;;;;3.00;3.00;;;;;22.66;39.23;100916.25;5026028;28;45537;-62
2022/08/30 01:08:06;;;;;;;;;5.00;5.00;;;;;22.63;39.42;100918.31;5053746;28;45588;-63
2022/08/30 01:10:46;;;;;;;;;5.00;4.75;;;;;22.56;39.27;100917.97;5059024;28;45489;-64
2022/08/30 01:13:34;;;;;;;;;4.25;4.25;;;;;22.55;39.65;100916.25;5024205;28;45534;-62
2022/08/30 01:16:17;;;;;;;;;4.75;3.25;;;;;22.52;39.71;100910.31;5041757;28;45492;-62
2022/08/30 01:22:18;;;;;;;;;5.00;5.00;;;;;22.49;39.71;100919.44;5059254;28;44871;-63
2022/08/30 01:25:01;;;;;;;;;5.25;4.00;;;;;22.47;39.82;100919.56;5025990;28;45487;-61
2022/08/30 01:31:02;;;;;;;;;3.75;3.00;;;;;22.52;39.68;100943.31;5062845;28;45671;-64
2022/08/30 01:36:31;;;;;;;;;4.25;3.50;;;;;22.49;39.88;100938.22;5096589;27;45595;-64
2022/08/30 02:03:36;;;;;;;;;5.25;5.25;;;;;22.35;40.23;100943.78;5091497;27;45624;-64
2022/08/30 02:06:40;;;;;;;;;5.00;5.00;;;;;22.38;40.12;100927.47;5082280;27;45455;-65
2022/08/30 02:09:16;;;;;;;;;6.00;6.00;;;;;22.41;40.35;100927.25;5082398;27;45509;-62
2022/08/30 02:14:38;;;;;;;;;4.50;4.50;;;;;22.38;39.98;100943.53;5100672;27;45504;-64
2022/08/30 02:17:07;;;;;;;;;3.00;3.00;;;;;22.34;40.02;100945.63;5100693;27;45576;-61
2022/08/30 02:19:46;;;;;;;;;4.00;4.00;;;;;22.32;40.19;100944.88;5100891;27;46390;-64
2022/08/30 02:22:21;;;;;;;;;3.00;3.00;;;;;22.32;40.27;100944.03;5079787;27;45906;-62
2022/08/30 02:24:50;;;;;;;;;5.50;4.00;;;;;22.32;40.25;100946.72;5065286;27;46104;-61
2022/08/30 02:30:37;;;;;;;;;4.50;4.00;;;;;22.33;40.43;100959.16;5099218;27;45674;-64
2022/08/30 02:33:11;;;;;;;;;3.75;3.75;;;;;22.30;40.41;100957.59;5100319;27;45539;-63
2022/08/30 02:36:02;;;;;;;;;3.25;3.25;;;;;22.28;40.63;100952.34;5082210;27;45541;-64
2022/08/30 02:38:34;;;;;;;;;4.00;4.00;;;;;22.27;40.64;100952.44;5083113;27;45512;-63
2022/08/30 02:41:32;;;;;;;;;4.00;4.00;;;;;22.24;40.61;100948.16;5081549;27;45586;-64
2022/08/30 02:44:11;;;;;;;;;5.25;5.00;;;;;22.17;41.19;100948.78;5041426;27;45517;-62
2022/08/30 02:46:48;;;;;;;;;4.50;4.50;;;;;22.14;40.92;100955.22;5076968;27;45455;-64
2022/08/30 02:49:29;;;;;;;;;6.25;4.75;;;;;22.15;41.15;100954.22;5082045;27;45515;-63
2022/08/30 02:58:15;;;;;;;;;6.25;6.25;;;;;22.12;41.04;100945.59;5069965;27;45531;-63
2022/08/30 03:00:58;;;;;;;;;4.75;4.75;;;;;22.13;40.80;100947.28;5071533;27;45363;-62
2022/08/30 03:03:35;;;;;;;;;6.50;5.00;;;;;22.06;42.04;100944.25;5033400;27;45507;-64
2022/08/30 03:06:29;;;;;;;;;3.75;3.50;;;;;22.00;42.94;100948.28;5034930;27;44789;-63
2022/08/30 03:09:09;;;;;;;;;4.25;4.25;;;;;21.90;43.72;100944.59;5082580;27;45468;-63
2022/08/30 03:11:50;;;;;;;;;6.00;6.00;;;;;21.82;45.34;100955.88;5064526;27;45515;-63
2022/08/30 03:14:19;;;;;;;;;7.00;6.75;;;;;21.74;45.80;100981.56;5093959;27;45563;-62
2022/08/30 03:16:51;;;;;;;;;5.75;5.25;;;;;21.66;46.94;100982.13;5080804;27;45712;-64
2022/08/30 03:19:50;;;;;;;;;5.00;5.00;;;;;21.60;49.46;100982.56;5065661;27;45544;-63
2022/08/30 03:22:23;;;;;;;;;6.67;6.67;;;;;21.56;49.40;100957.03;5047101;27;45582;-61
2022/08/30 03:25:27;;;;;;;;;4.00;4.00;;;;;21.50;48.11;100954.81;5031020;27;45560;-64
2022/08/30 03:28:32;;;;;;;;;5.67;5.67;;;;;21.42;48.24;100951.88;5081807;27;45499;-63
2022/08/30 03:31:56;;;;;;;;;6.67;6.67;;;;;21.26;49.92;100952.13;5046873;28;45554;-64
2022/08/30 03:37:44;;;;;;;;;7.33;6.67;;;;;21.17;51.78;100933.13;5099684;27;45453;-62
2022/08/30 03:40:20;;;;;;;;;6.67;6.67;;;;;21.13;51.73;100922.75;5080805;27;45811;-64
2022/08/30 03:42:50;;;;;;;;;7.00;7.00;;;;;21.13;51.31;100918.25;5046763;27;45448;-62
2022/08/30 03:45:41;;;;;;;;;9.00;7.00;;;;;21.11;51.93;100911.31;5082089;27;45557;-65
2022/08/30 03:48:20;;;;;;;;;4.00;4.00;;;;;21.04;51.88;100923.47;5080244;27;45525;-61
2022/08/30 03:51:14;;;;;;;;;12.00;8.00;;;;;21.01;51.95;100920.97;5047191;27;45494;-62
2022/08/30 03:53:59;;;;;;;;;6.00;5.00;;;;;21.08;51.56;100935.63;5087685;27;45532;-61
2022/08/30 03:56:49;;;;;;;;;7.33;6.67;;;;;;;;5027718;28;45611;-61
2022/08/30 03:59:48;;;;;;;;;10.00;9.00;;;;;21.07;52.17;100924.06;5047152;27;45578;-64
2022/08/30 04:02:53;;;;;;;;;6.67;6.67;;;;;21.04;51.90;100907.41;5076044;28;45554;-61
2022/08/30 04:05:44;;;;;;;;;9.00;6.00;;;;;21.02;52.04;100894.13;5084251;27;45622;-61
2022/08/30 04:08:46;;;;;;;;;8.00;8.00;;;;;21.03;51.74;100901.19;5098700;27;45539;-62
2022/08/30 04:11:23;;;;;;;;;9.00;7.33;;;;;21.02;52.14;100896.81;5045062;27;45665;-62
2022/08/30 04:14:09;;;;;;;;;7.33;7.33;;;;;21.04;51.07;100902.91;5083985;27;45363;-62
2022/08/30 04:16:40;;;;;;;;;11.33;9.00;;;;;21.03;51.35;100905.69;5099309;27;45517;-63
2022/08/30 04:43:10;;;;;;;;;8.33;7.00;;;;;21.04;50.65;100915.44;5099118;27;45540;-64
2022/08/30 04:46:23;;;;;;;;;7.00;7.00;;;;;21.02;50.70;100907.50;5079399;27;45536;-62
2022/08/30 04:49:07;;;;;;;;;7.67;7.67;;;;;21.05;50.41;100914.47;5032559;27;45432;-63
2022/08/30 04:51:48;;;;;;;;;7.33;7.33;;;;;21.00;51.01;100908.59;5079906;27;45437;-63
2022/08/30 04:54:54;;;;;;;;;6.33;5.00;;;;;21.00;50.65;100908.59;5079854;27;45582;-62
2022/08/30 04:57:28;;;;;;;;;8.00;8.00;;;;;21.00;50.42;100913.94;5080852;27;45635;-63
2022/08/30 05:00:16;;;;;;;;;12.33;10.00;;;;;20.95;50.83;100919.63;5030067;27;45660;-63
2022/08/30 05:02:55;;;;;;;;;7.00;6.33;;;;;21.00;50.76;100913.94;5042449;28;45532;-62
2022/08/30 05:05:45;;;;;;;;;8.00;7.00;;;;;21.01;50.61;100915.63;5041892;28;45616;-64
2022/08/30 05:08:27;;;;;;;;;14.33;14.33;;;;;20.98;50.95;100911.38;5042452;28;45603;-63
2022/08/30 05:14:13;;;;;;;;;8.67;8.67;;;;;21.07;51.49;100923.22;5033622;28;45577;-64
2022/08/30 05:16:49;;;;;;;;;6.33;6.33;;;;;21.07;49.79;100926.75;5077268;28;45431;-64
2022/08/30 05:19:23;;;;;;;;;6.67;6.67;;;;;21.05;50.58;100922.47;5059235;28;45593;-64
2022/08/30 05:22:07;;;;;;;;;7.00;7.00;;;;;21.03;50.36;100925.25;5058925;28;45546;-64
2022/08/30 05:24:36;;;;;;;;;6.67;6.00;;;;;21.06;50.35;100926.84;5061426;28;45597;-61
2022/08/30 05:27:08;;;;;;;;;8.00;6.67;;;;;;;;5081158;28;45960;-62
2022/08/30 05:29:36;;;;;;;;;7.67;7.67;;;;;21.07;51.25;100941.94;5079426;28;45559;-66
2022/08/30 05:32:25;;;;;;;;;8.00;7.00;;;;;21.05;50.04;100938.53;5081445;28;45557;-63
2022/08/30 05:35:23;;;;;;;;;9.00;7.33;;;;;21.07;49.96;100942.78;5062795;28;45485;-66
2022/08/30 05:38:02;;;;;;;;;6.00;6.00;;;;;21.10;49.86;100939.88;5025379;28;45296;-62
2022/08/30 05:41:08;;;;;;;;;7.67;7.67;;;;;21.13;49.87;100949.50;5025156;28;45707;-61
2022/08/30 05:46:34;;;;;;;;;12.67;11.67;;;;;21.12;49.93;100953.16;5080775;28;45456;-62
2022/08/30 05:49:23;;;;;;;;;8.00;8.00;;;;;21.11;49.72;100954.97;5028351;28;45617;-64
2022/08/30 05:55:06;;;;;;;;;8.00;7.33;;;;;21.13;49.39;100960.22;5036152;28;45605;-63
2022/08/30 05:58:09;;;;;;;;;10.67;8.00;;;;;21.11;49.17;100952.28;5080654;28;45480;-63
2022/08/30 06:01:13;;;;;;;;;12.00;9.33;;;;;21.12;48.90;100946.00;5062191;28;45614;-64
2022/08/30 06:04:00;;;;;;;;;7.67;6.00;;;;;21.11;48.87;100946.09;5062500;28;45430;-64
2022/08/30 06:06:41;;;;;;;;;11.67;9.00;;;;;21.12;48.16;100946.00;5061723;28;48181;-62
2022/08/30 06:09:10;;;;;;;;;7.00;6.00;;;;;21.11;48.53;100948.75;5028799;28;45475;-62
2022/08/30 06:11:47;;;;;;;;;9.00;7.00;;;;;21.12;48.71;100948.66;5080458;28;45449;-63
2022/08/30 06:14:16;;;;;;;;;8.33;8.00;;;;;21.10;48.35;100953.25;5079461;28;45486;-64
2022/08/30 06:17:23;;;;;;;;;8.00;7.00;;;;;21.11;47.85;100944.25;5079878;28;45999;-63
2022/08/30 06:20:27;;;;;;;;;7.00;7.00;;;;;21.12;47.77;100950.50;5080191;28;45586;-64
2022/08/30 06:23:04;;;;;;;;;8.00;7.67;;;;;21.12;47.83;100945.13;5012752;28;45464;-65
2022/08/30 06:25:55;;;;;;;;;6.67;6.67;;;;;21.11;47.84;100941.59;5061836;28;45564;-62
2022/08/30 06:28:35;;;;;;;;;9.00;7.00;;;;;21.10;47.49;100944.38;5059708;28;46471;-64
2022/08/30 06:31:29;;;;;;;;;7.00;7.00;;;;;21.16;47.69;100954.63;5012497;28;45511;-64
2022/08/30 06:33:58;;;;;;;;;7.33;6.33;;;;;21.14;47.49;100951.19;5030478;28;45682;-64
2022/08/30 06:40:08;;;;;;;;;9.00;6.67;;;;;21.19;47.47;100962.41;5078600;28;45518;-65
2022/08/30 06:42:59;;;;;;;;;8.00;6.00;;;;;21.21;47.52;100956.97;5079288;28;45501;-63
2022/08/30 06:45:29;;;;;;;;;7.00;7.00;;;;;21.23;47.27;100955.88;5078756;28;45553;-63
2022/08/30 06:51:22;;;;;;;;;10.67;8.00;;;;;21.28;47.76;100956.41;5064571;28;45797;-62
2022/08/30 06:57:21;;;;;;;;;8.00;8.00;;;;;21.37;47.23;100965.56;4989111;28;45878;-63
2022/08/30 07:00:02;;;;;;;;;7.00;7.00;;;;;21.39;46.83;100966.34;5060169;28;45626;-66
2022/08/30 07:02:52;;;;;;;;;7.67;6.33;;;;;21.40;47.42;100971.56;5072006;27;45557;-64
2022/08/30 07:05:35;;;;;;;;;9.00;9.00;;;;;21.42;46.61;100973.28;5030499;27;45565;-63
2022/08/30 07:08:16;;;;;;;;;10.00;8.33;;;;;21.46;47.32;100974.75;5050058;27;45575;-63
2022/08/30 07:11:06;;;;;;;;;11.00;9.33;;;;;21.49;47.07;100979.84;5081384;27;45447;-63
2022/08/30 07:20:12;;;;;;;;;9.67;9.67;;;;;21.50;46.97;100987.78;5099474;27;45467;-63
2022/08/30 07:23:16;;;;;;;;;10.67;10.00;;;;;21.51;47.00;100980.59;5080532;27;45463;-64
2022/08/30 07:25:42;;;;;;;;;8.00;8.00;;;;;21.53;46.72;100974.16;5094991;27;45519;-63
2022/08/30 07:28:24;;;;;;;;;8.00;8.00;;;;;21.53;46.70;100979.53;5098870;27;45526;-65
2022/08/30 07:30:58;;;;;;;;;10.33;9.00;;;;;21.57;46.51;100978.34;5033576;27;45597;-65
2022/08/30 07:34:10;;;;;;;;;11.00;11.00;;;;;21.58;46.43;100985.38;5084738;27;45518;-64
2022/08/30 07:37:13;;;;;;;;;12.00;11.33;;;;;21.59;46.79;100978.19;5065533;27;47429;-65
2022/08/30 07:43:07;;;;;;;;;12.33;9.67;;;;;21.62;46.56;100978.81;5099378;27;45396;-64
2022/08/30 07:45:39;;;;;;;;;12.00;11.00;;;;;21.63;46.78;100971.66;5036902;27;45637;-63
2022/08/30 07:48:12;;;;;;;;;10.67;10.00;;;;;21.66;46.28;100981.28;5062491;27;45521;-64
2022/08/30 07:51:05;;;;;;;;;14.00;10.33;;;;;21.71;46.99;100990.66;4998619;27;45541;-64
2022/08/30 07:54:19;;;;;;;;;13.67;11.33;;;;;21.75;46.52;100985.94;5084701;27;45575;-63
2022/08/30 07:56:54;;;;;;;;;11.67;9.00;;;;;21.80;46.58;100983.75;5070664;27;45527;-63
2022/08/30 07:59:25;;;;;;;;;11.33;9.33;;;;;21.84;46.47;100986.09;5063283;27;45562;-65
2022/08/30 08:01:50;;;;;;;;;12.67;11.67;;;;;21.84;46.03;100986.09;5079647;27;45423;-65
2022/08/30 08:07:32;;;;;;;;;10.67;10.00;;;;;21.89;46.22;100996.44;5099002;27;45487;-64
2022/08/30 08:10:26;;;;;;;;;10.00;10.00;;;;;21.93;46.05;100992.56;5046392;27;45478;-63
2022/08/30 08:13:26;;;;;;;;;11.67;11.67;;;;;21.97;45.85;100994.00;5062144;27;45479;-65
2022/08/30 08:16:07;;;;;;;;;12.00;10.00;;;;;21.97;45.92;100994.00;5006444;28;45554;-63
2022/08/30 08:18:49;;;;;;;;;12.33;10.67;;;;;21.99;46.26;101002.78;5018599;28;45541;-64
2022/08/30 08:25:25;;;;;;;;;9.33;9.33;;;;;22.08;46.34;101005.72;5035252;28;45696;-65
2022/08/30 08:28:20;;;;;;;;;12.67;12.33;;;;;22.16;46.38;101014.03;5002343;28;45410;-64
2022/08/30 08:31:20;;;;;;;;;11.67;11.33;;;;;22.17;46.22;101010.38;5018117;28;45617;-64
2022/08/30 08:34:04;;;;;;;;;9.67;9.67;;;;;22.20;45.80;101016.38;5001752;28;45561;-65
2022/08/30 08:40:06;;;;;;;;;12.00;11.00;;;;;22.25;45.92;101022.25;5015888;28;45595;-65
2022/08/30 08:43:10;;;;;;;;;13.00;13.00;;;;;22.27;45.98;101024.78;4982654;28;45400;-64
2022/08/30 08:46:04;;;;;;;;;12.33;11.33;;;;;22.35;45.87;101030.41;5002637;28;45475;-63
2022/08/30 08:48:57;;;;;;;;;16.67;16.00;;;;;22.43;46.00;101024.44;5038113;28;45548;-64
2022/08/30 08:54:56;;;;;;;;;13.00;13.00;;;;;22.58;45.02;101027.75;5041256;28;46225;-63
2022/08/30 08:57:54;;;;;;;;;20.00;16.33;;;;;22.62;45.26;101042.63;5037739;28;47977;-63
2022/08/30 09:00:47;;;;;;;;;11.67;11.67;;;;;22.67;45.34;101041.28;5030216;28;45580;-63
2022/08/30 09:03:42;;;;;;;;;11.00;11.00;;;;;22.75;45.16;101047.88;5057771;28;45677;-61
2022/08/30 09:06:51;;;;;;;;;16.33;14.00;;;;;22.76;45.10;101044.22;5026031;28;45643;-64
2022/08/30 09:09:48;;;;;;;;;10.33;9.67;;;;;22.77;44.91;101057.50;5041867;28;48141;-65
2022/08/30 09:12:20;;;;;;;;;12.00;12.00;;;;;22.74;44.80;101052.38;5026629;28;45557;-63
2022/08/30 09:15:32;;;;;;;;;16.00;14.67;;;;;22.80;44.91;101051.03;5057835;28;45648;-64
2022/08/30 09:21:38;;;;;;;;;26.67;22.67;;;;;22.95;44.82;101044.44;4983185;28;46124;-62
2022/08/30 09:24:26;;;;;;;;;12.33;11.00;;;;;22.96;44.82;101051.53;4997828;28;45554;-64
2022/08/30 09:27:57;;;;;;;;;15.67;14.00;;;;;23.00;44.72;101046.78;5015383;28;45602;-62
2022/08/30 09:30:37;;;;;;;;;11.00;11.00;;;;;23.06;44.51;101051.66;5041099;28;45570;-63
2022/08/30 09:33:31;;;;;;;;;12.00;12.00;;;;;23.11;44.60;101050.31;5008390;28;46407;-62
2022/08/30 09:36:15;;;;;;;;;12.67;12.67;;;;;23.20;44.96;101053.22;5041215;28;45418;-65
2022/08/30 09:38:40;;;;;;;;;15.33;13.33;;;;;23.25;44.48;101046.50;5058086;28;45484;-64
2022/08/30 09:41:48;;;;;;;;;17.67;17.67;;;;;23.35;44.43;101060.88;5058313;28;45685;-64
2022/08/30 09:44:39;;;;;;;;;14.00;13.00;;;;;23.41;44.16;101064.91;5061559;28;45676;-64
2022/08/30 10:04:45;;;;;;;;;15.67;15.00;;;;;23.64;43.82;101057.59;5042418;27;45473;-63
2022/08/30 10:15:27;;;;;;;;;13.33;11.67;;;;;23.76;43.26;101062.00;5100656;27;46095;-67
2022/08/30 10:18:17;;;;;;;;;14.67;13.33;;;;;23.83;43.08;101054.28;5081955;27;45425;-61
2022/08/30 10:21:26;;;;;;;;;15.00;14.33;;;;;23.85;43.03;101056.84;5098983;27;45423;-64
2022/08/30 10:27:27;;;;;;;;;22.00;22.00;;;;;23.93;43.43;101048.97;5100697;27;45540;-64
2022/08/30 10:33:19;;;;;;;;;19.00;15.33;;;;;24.02;43.27;101059.81;5068996;27;45581;-63
2022/08/30 10:36:09;;;;;;;;;12.25;12.00;;;;;24.06;42.91;101056.88;5099120;27;46496;-63
2022/08/30 10:42:21;;;;;;;;;17.67;16.67;;;;;24.12;43.00;101056.34;5098642;27;45500;-64
2022/08/30 10:45:18;;;;;;;;;12.00;12.00;;;;;24.16;43.11;101064.00;4980114;28;45500;-63
2022/08/30 10:51:55;;;;;;;;;14.33;14.33;;;;;24.23;43.18;101057.13;4996483;28;45559;-64
2022/08/30 10:55:01;;;;;;;;;12.00;12.00;;;;;24.25;42.46;101059.69;4970637;28;45648;-65
2022/08/30 10:57:44;;;;;;;;;13.00;12.00;;;;;24.28;42.77;101062.09;4996138;28;45490;-65
2022/08/30 11:00:50;;;;;;;;;10.75;10.75;;;;;24.30;42.55;101054.75;4948344;28;45504;-64
2022/08/30 11:07:23;;;;;;;;;17.33;16.33;;;;;24.35;42.82;101057.91;5098764;27;45511;-62
2022/08/30 11:10:36;;;;;;;;;14.25;11.50;;;;;24.36;42.57;101059.59;5045015;27;45680;-65
2022/08/30 11:13:36;;;;;;;;;10.25;10.00;;;;;24.42;42.66;101053.72;5092583;27;46668;-65
2022/08/30 11:26:48;;;;;;;;;15.00;14.67;;;;;24.49;42.53;101055.91;5098377;27;45849;-63
2022/08/30 11:30:03;;;;;;;;;15.33;14.00;;;;;24.39;42.74;101050.41;5096910;27;45507;-63
2022/08/30 11:33:02;;;;;;;;;14.33;14.33;;;;;24.49;42.95;101053.22;5015304;27;45445;-65
2022/08/30 11:39:34;;;;;;;;;16.67;15.33;;;;;24.61;42.66;101057.50;5053190;27;45544;-64
2022/08/30 11:42:44;;;;;;;;;16.33;14.00;;;;;24.62;42.46;101048.47;5089750;27;45541;-62
2022/08/30 11:49:44;;;;;;;;;14.00;12.50;;;;;24.71;42.43;101049.47;5060871;27;45460;-65
2022/08/30 11:53:07;;;;;;;;;11.25;10.75;;;;;24.81;42.46;101053.06;4995096;28;45562;-63
2022/08/30 11:56:15;;;;;;;;;13.75;13.25;;;;;24.87;42.42;101053.38;4955972;28;45539;-65
2022/08/30 11:59:23;;;;;;;;;12.00;11.00;;;;;24.97;42.41;101050.72;4956252;28;45546;-64
2022/08/30 12:02:17;;;;;;;;;14.25;14.00;;;;;25.01;42.00;101052.16;4956203;28;45535;-63
2022/08/30 12:08:07;;;;;;;;;15.00;13.00;;;;;25.09;41.75;101055.03;4976334;28;45636;-63
2022/08/30 12:14:36;;;;;;;;;13.50;12.50;;;;;25.13;41.63;101053.75;4948558;28;45470;-63
2022/08/30 12:34:26;;;;;;;;;15.00;15.00;;;;;25.31;41.61;101059.34;4994254;28;45485;-61
2022/08/30 12:37:27;;;;;;;;;11.75;11.75;;;;;25.29;41.73;101055.94;4975777;28;45629;-62
2022/08/30 12:40:30;;;;;;;;;13.75;13.75;;;;;25.35;41.60;101054.53;4978859;28;45441;-61
2022/08/30 12:43:32;;;;;;;;;13.50;12.00;;;;;25.35;41.41;101052.69;4995337;28;47106;-63
2022/08/30 12:46:11;;;;;;;;;14.00;12.25;;;;;25.40;41.79;101054.13;4989049;28;45496;-63
2022/08/30 12:49:02;;;;;;;;;12.00;12.00;;;;;25.42;41.77;101050.31;4932926;28;45597;-63
2022/08/30 12:51:44;;;;;;;;;11.25;10.75;;;;;25.45;41.56;101051.88;4978572;28;45573;-62
2022/08/30 12:54:44;;;;;;;;;12.00;10.50;;;;;25.50;41.52;101047.75;4963000;28;46439;-62
2022/08/30 12:57:37;;;;;;;;;13.75;12.25;;;;;25.52;41.70;101044.91;5037092;27;45544;-61
2022/08/30 13:03:37;;;;;;;;;10.75;10.25;;;;;25.57;41.38;101030.03;5097433;27;45503;-65
2022/08/30 13:06:06;;;;;;;;;14.00;14.00;;;;;25.59;41.34;101026.34;5066929;28;46319;-65
2022/08/30 13:09:05;;;;;;;;;12.25;11.00;;;;;25.61;42.00;101025.22;5077822;28;45387;-65
2022/08/30 13:11:33;;;;;;;;;11.25;10.25;;;;;25.69;41.83;101029.91;5057600;28;45560;-63
2022/08/30 13:14:19;;;;;;;;;13.00;13.00;;;;;25.74;41.06;101025.78;5022008;28;45454;-64
2022/08/30 13:17:03;;;;;;;;;13.75;13.00;;;;;25.86;41.48;101031.91;5064401;28;46615;-62
2022/08/30 13:19:57;;;;;;;;;12.25;12.25;;;;;26.04;40.97;101018.56;5077206;28;45538;-63
2022/08/30 13:26:26;;;;;;;;;14.75;14.00;;;;;26.12;40.76;101017.84;5076951;28;45557;-62
2022/08/30 13:29:19;;;;;;;;;15.00;13.50;;;;;26.04;41.13;101010.47;4994529;28;46221;-63
2022/08/30 13:34:34;;;;;;;;;13.00;12.00;;;;;26.06;40.93;101008.50;4980594;28;45537;-64
2022/08/30 13:37:42;;;;;;;;;13.00;11.75;;;;;26.13;40.48;101008.75;4994748;28;45469;-62
2022/08/30 13:40:29;;;;;;;;;15.00;13.75;;;;;26.17;40.35;101011.03;4978694;28;45648;-61
2022/08/30 13:46:07;;;;;;;;;13.00;13.00;;;;;26.31;40.50;101012.41;5000841;28;45486;-63
2022/08/30 13:48:35;;;;;;;;;12.25;11.75;;;;;26.44;39.98;101009.38;5062000;28;45486;-65
2022/08/30 13:51:14;;;;;;;;;10.50;10.50;;;;;26.58;39.96;101008.94;5080137;28;45521;-64
2022/08/30 13:53:59;;;;;;;;;12.00;11.00;;;;;26.51;39.24;101007.81;5074956;28;45590;-62
2022/08/30 13:56:31;;;;;;;;;12.00;11.00;;;;;26.34;39.78;100995.06;5080653;28;45438;-65
2022/08/30 13:58:59;;;;;;;;;13.25;13.25;;;;;26.33;39.59;100996.06;5062431;28;45440;-63
2022/08/30 14:01:50;;;;;;;;;18.25;17.00;;;;;26.51;40.48;101007.81;5061525;28;46337;-62
2022/08/30 14:04:26;;;;;;;;;12.25;11.25;;;;;26.73;38.97;101003.03;5048204;28;45624;-62
2022/08/30 14:34:03;;;;;;;;;10.25;9.75;;;;;27.26;37.89;100978.03;5099495;27;45492;-64
2022/08/30 14:36:57;;;;;;;;;10.00;10.00;;;;;27.20;37.74;100978.66;5012470;28;45430;-65
2022/08/30 14:40:08;;;;;;;;;14.25;11.25;;;;;27.15;38.79;100973.66;5073366;27;45537;-63
2022/08/30 14:42:59;;;;;;;;;12.50;12.00;;;;;27.01;37.99;100966.94;5069877;27;45474;-64
2022/08/30 14:45:24;;;;;;;;;11.50;10.00;;;;;26.92;38.36;100972.38;5081340;27;45511;-63
2022/08/30 14:48:08;;;;;;;;;11.75;10.25;;;;;26.84;37.91;100967.75;5099673;27;45555;-63
2022/08/30 14:51:16;;;;;;;;;11.00;11.00;;;;;26.76;38.55;100960.41;5035001;27;46163;-63
2022/08/30 14:54:11;;;;;;;;;8.25;7.50;;;;;26.76;38.54;100954.16;5000194;28;45544;-65
2022/08/30 14:56:38;;;;;;;;;13.75;12.75;;;;;26.71;39.22;100954.63;5008517;28;45482;-64
2022/08/30 14:59:04;;;;;;;;;7.00;7.00;;;;;26.67;39.01;100951.34;5015952;28;45543;-64
2022/08/30 15:01:35;;;;;;;;;9.75;9.75;;;;;26.65;39.12;100950.69;5016289;28;45816;-63
2022/08/30 15:04:41;;;;;;;;;9.50;9.50;;;;;26.63;38.21;100941.03;5012927;28;45464;-64
2022/08/30 15:07:49;;;;;;;;;8.00;8.00;;;;;26.60;38.25;100939.50;4971161;28;45543;-62
2022/08/30 15:10:17;;;;;;;;;9.75;9.00;;;;;26.59;37.72;100936.94;4999748;28;45499;-63
2022/08/30 15:15:53;;;;;;;;;10.00;8.00;;;;;26.49;37.44;100923.47;5055161;27;45594;-65
2022/08/30 15:18:47;;;;;;;;;9.00;8.00;;;;;26.48;38.12;100926.31;5058183;27;45657;-62
2022/08/30 15:21:48;;;;;;;;;8.00;8.00;;;;;26.46;38.03;100921.03;5063817;27;45615;-63
2022/08/30 15:24:35;;;;;;;;;9.00;8.25;;;;;26.48;38.58;100924.44;5066791;27;45611;-63
2022/08/30 15:27:01;;;;;;;;;11.25;9.00;;;;;26.49;38.01;100918.09;5081459;27;45397;-62
2022/08/30 15:29:31;;;;;;;;;10.75;9.25;;;;;26.48;38.53;100924.44;5081280;27;45517;-64
2022/08/30 15:31:57;;;;;;;;;8.50;8.50;;;;;26.49;38.43;100918.09;5079735;27;45541;-66
2022/08/30 15:34:46;;;;;;;;;10.50;9.25;;;;;26.51;38.65;100923.31;5099539;27;45477;-64
2022/08/30 15:37:21;;;;;;;;;15.00;15.00;;;;;26.51;38.61;100918.78;5062694;27;45562;-63
2022/08/30 15:40:00;;;;;;;;;17.00;16.50;;;;;26.54;38.65;100921.19;5080727;27;45523;-63
2022/08/30 15:43:07;;;;;;;;;10.75;9.75;;;;;26.57;38.56;100914.63;5030458;27;46360;-65
2022/08/30 15:49:40;;;;;;;;;9.25;9.25;;;;;26.55;38.42;100908.56;5083408;27;45501;-62
2022/08/30 15:52:34;;;;;;;;;9.75;8.75;;;;;26.55;38.20;100916.66;5035929;27;45534;-66
2022/08/30 15:55:53;;;;;;;;;7.50;7.50;;;;;26.58;37.86;100905.56;5090859;27;45470;-63
2022/08/30 15:58:44;;;;;;;;;8.75;8.75;;;;;26.64;38.09;100899.56;5002704;28;46503;-65
2022/08/30 16:01:20;;;;;;;;;17.00;16.50;;;;;26.64;37.96;100903.09;5019390;28;45571;-65
2022/08/30 16:04:02;;;;;;;;;12.50;11.25;;;;;26.60;37.96;100895.47;4971507;28;45491;-64
2022/08/30 16:06:31;;;;;;;;;8.75;7.75;;;;;26.55;37.80;100890.53;5015907;28;45470;-67
2022/08/30 16:12:04;;;;;;;;;9.75;9.75;;;;;26.51;37.83;100886.41;5028062;28;45490;-62
2022/08/30 16:14:53;;;;;;;;;10.50;10.50;;;;;26.54;37.98;100890.66;5015495;28;45518;-64
2022/08/30 16:17:25;;;;;;;;;8.50;8.50;;;;;26.56;37.81;100883.28;4974157;28;45549;-63
2022/08/30 16:19:58;;;;;;;;;9.25;8.50;;;;;26.58;37.90;100886.69;5018351;28;46330;-65
2022/08/30 16:22:48;;;;;;;;;9.00;8.00;;;;;26.57;37.72;100884.97;5018566;28;45503;-64
2022/08/30 16:31:46;;;;;;;;;11.00;9.00;;;;;26.77;37.62;100880.31;4992471;28;45528;-63
2022/08/30 16:34:20;;;;;;;;;10.25;9.25;;;;;26.74;37.87;100880.63;5018113;28;45620;-64
2022/08/30 16:37:07;;;;;;;;;10.75;10.75;;;;;26.74;38.16;100876.06;5029468;27;45476;-64
2022/08/30 16:39:33;;;;;;;;;14.75;14.75;;;;;26.70;38.03;100877.34;5078945;27;45376;-64
2022/08/30 16:42:00;;;;;;;;;13.25;12.00;;;;;26.70;38.32;100876.50;5098594;27;45490;-65
2022/08/30 16:44:47;;;;;;;;;12.00;11.00;;;;;26.69;38.21;100874.81;5097857;27;45566;-64
2022/08/30 16:47:25;;;;;;;;;10.25;9.00;;;;;26.70;37.63;100868.41;5062102;27;45530;-62
2022/08/30 16:54:16;;;;;;;;;8.00;8.00;;;;;26.69;38.20;100867.56;5014382;28;45391;-65
2022/08/30 16:56:51;;;;;;;;;9.50;8.50;;;;;26.68;38.12;100857.78;4997755;28;45463;-64
2022/08/30 16:59:22;;;;;;;;;9.75;8.25;;;;;26.66;38.07;100863.31;4998314;28;45571;-63
2022/08/30 17:12:42;;;;;;;;;12.25;12.25;;;;;26.68;38.32;100863.19;5013185;28;45448;-66
2022/08/30 17:18:37;;;;;;;;;11.00;8.75;;;;;26.65;38.17;100861.66;4975398;28;45606;-65
2022/08/30 17:21:14;;;;;;;;;10.00;10.00;;;;;26.65;38.05;100864.34;4962179;28;45623;-65
2022/08/30 17:24:05;;;;;;;;;10.25;10.25;;;;;26.63;38.20;100863.63;4978785;28;45561;-64
2022/08/30 17:27:02;;;;;;;;;10.00;10.00;;;;;26.63;38.08;100870.88;4946094;28;45562;-63
2022/08/30 17:29:40;;;;;;;;;9.00;9.00;;;;;26.63;38.03;100866.34;4998026;28;45665;-64
2022/08/30 17:32:19;;;;;;;;;14.50;11.75;;;;;26.65;38.28;100864.34;5014952;28;45606;-62